createdAt,value
2022-11-07T00:00:25.301Z,16.19
2022-11-07T00:06:09.758Z,16.51
2022-11-07T00:08:48.099Z,16.53
2022-11-07T00:11:37.154Z,16.58
2022-11-07T00:14:51.670Z,16.55
2022-11-07T00:31:21.057Z,16.43
2022-11-07T00:36:56.601Z,16.56
2022-11-07T00:39:30.137Z,16.45
2022-11-07T00:42:08.791Z,16.48
2022-11-07T00:45:06.197Z,16.44
2022-11-07T00:51:50.546Z,16.54
2022-11-07T00:54:52.860Z,16.64
2022-11-07T00:58:11.236Z,16.64
2022-11-07T01:04:30.660Z,16.64
2022-11-07T01:13:41.882Z,16.75
2022-11-07T01:16:40.312Z,16.75
2022-11-07T01:19:24.785Z,16.75
2022-11-07T01:22:07.369Z,16.79
2022-11-07T01:24:54.178Z,16.89
2022-11-07T01:27:44.924Z,16.92
2022-11-07T01:30:51.488Z,16.96
2022-11-07T01:37:19.383Z,16.83
2022-11-07T01:40:38.506Z,16.95
2022-11-07T01:43:18.564Z,16.73
2022-11-07T01:51:46.027Z,16.74
2022-11-07T01:54:53.825Z,16.74
2022-11-07T01:57:49.962Z,16.71
2022-11-07T02:00:46.575Z,16.90
2022-11-07T02:03:22.729Z,16.99
2022-11-07T02:06:21.608Z,16.73
2022-11-07T02:09:27.811Z,16.67
2022-11-07T02:12:29.854Z,16.76
2022-11-07T02:15:32.429Z,16.76
2022-11-07T02:21:47.304Z,16.75
2022-11-07T02:30:39.359Z,16.79
2022-11-07T02:39:24.212Z,16.87
2022-11-07T02:45:03.899Z,16.95
2022-11-07T02:47:45.904Z,16.92
2022-11-07T02:50:34.319Z,16.94
2022-11-07T02:56:38.419Z,16.94
2022-11-07T02:59:21.766Z,16.95
2022-11-07T03:02:08.267Z,16.94
2022-11-07T03:04:59.339Z,16.96
2022-11-07T03:07:42.628Z,16.96
2022-11-07T03:10:19.482Z,17.00
2022-11-07T03:13:24.320Z,16.96
2022-11-07T03:19:43.197Z,16.77
2022-11-07T03:22:35.258Z,16.67
2022-11-07T03:25:34.817Z,16.64
2022-11-07T03:28:09.503Z,16.71
2022-11-07T03:45:11.568Z,16.66
2022-11-07T03:47:57.521Z,16.82
2022-11-07T03:54:40.150Z,16.82
2022-11-07T03:57:35.743Z,16.60
2022-11-07T04:00:18.033Z,16.64
2022-11-07T04:05:56.091Z,16.65
2022-11-07T04:08:47.741Z,16.88
2022-11-07T04:12:20.426Z,16.73
2022-11-07T04:15:12.845Z,16.89
2022-11-07T04:20:59.718Z,16.70
2022-11-07T04:23:44.187Z,16.97
2022-11-07T04:26:44.650Z,16.89
2022-11-07T04:30:31.104Z,16.73
2022-11-07T04:36:31.638Z,16.88
2022-11-07T04:39:28.645Z,16.97
2022-11-07T04:42:17.257Z,16.85
2022-11-07T04:51:14.438Z,16.78
2022-11-07T04:53:59.800Z,16.74
2022-11-07T04:56:52.318Z,16.73
2022-11-07T04:59:37.946Z,16.90
2022-11-07T05:02:21.203Z,16.81
2022-11-07T05:08:09.828Z,16.98
2022-11-07T05:10:53.260Z,16.94
2022-11-07T05:17:10.218Z,16.87
2022-11-07T05:26:14.207Z,16.93
2022-11-07T05:29:14.942Z,17.08
2022-11-07T05:37:37.520Z,16.99
2022-11-07T05:40:30.905Z,16.87
2022-11-07T05:43:43.884Z,17.04
2022-11-07T05:46:25.878Z,17.06
2022-11-07T05:49:19.182Z,16.95
2022-11-07T05:52:12.828Z,16.93
2022-11-07T05:54:44.515Z,16.96
2022-11-07T05:57:28.553Z,17.09
2022-11-07T06:00:12.670Z,17.21
2022-11-07T06:02:59.081Z,17.24
2022-11-07T06:05:38.599Z,17.27
2022-11-07T06:08:27.410Z,17.24
2022-11-07T06:11:01.494Z,17.15
2022-11-07T06:14:04.305Z,17.28
2022-11-07T06:16:58.892Z,17.22
2022-11-07T06:19:56.448Z,17.27
2022-11-07T06:22:52.001Z,17.15
2022-11-07T06:25:24.428Z,17.29
2022-11-07T06:28:10.690Z,17.25
2022-11-07T06:31:16.393Z,17.25
2022-11-07T06:33:58.414Z,17.28
2022-11-07T06:40:16.352Z,17.23
2022-11-07T06:43:15.354Z,17.22
2022-11-07T06:46:09.132Z,17.33
2022-11-07T06:48:52.526Z,17.39
2022-11-07T06:52:09.352Z,17.32
2022-11-07T06:54:46.756Z,17.15
2022-11-07T06:57:41.388Z,17.13
2022-11-07T07:00:50.484Z,17.37
2022-11-07T07:06:47.266Z,17.26
2022-11-07T07:09:33.821Z,17.21
2022-11-07T07:12:38.035Z,17.22
2022-11-07T07:15:24.648Z,17.15
2022-11-07T07:18:07.377Z,17.29
2022-11-07T07:20:48.970Z,17.22
2022-11-07T07:29:34.467Z,17.39
2022-11-07T07:32:14.410Z,17.36
2022-11-07T07:34:49.718Z,17.30
2022-11-07T07:41:39.886Z,17.31
2022-11-07T07:51:49.080Z,17.24
2022-11-07T07:54:21.569Z,17.31
2022-11-07T07:56:54.735Z,17.28
2022-11-07T08:00:25.161Z,17.12
2022-11-07T08:06:48.043Z,17.16
2022-11-07T08:16:43.145Z,17.21
2022-11-07T08:23:36.131Z,17.30
2022-11-07T08:26:42.804Z,17.34
2022-11-07T08:32:57.109Z,17.58
2022-11-07T08:43:53.692Z,17.61
2022-11-07T08:46:45.589Z,17.67
2022-11-07T08:53:53.790Z,17.83
2022-11-07T08:57:23.869Z,17.87
2022-11-07T09:00:05.388Z,17.91
2022-11-07T09:03:12.608Z,17.95
2022-11-07T09:05:55.190Z,17.95
2022-11-07T09:09:06.207Z,18.02
2022-11-07T09:12:28.475Z,17.94
2022-11-07T09:15:35.213Z,17.94
2022-11-07T09:18:07.042Z,17.90
2022-11-07T09:21:26.101Z,17.98
2022-11-07T09:24:53.923Z,17.99
2022-11-07T09:31:28.870Z,17.89
2022-11-07T09:38:11.303Z,18.06
2022-11-07T09:40:52.914Z,18.27
2022-11-07T09:43:59.625Z,18.42
2022-11-07T09:47:26.298Z,18.51
2022-11-07T09:57:20.529Z,18.60
2022-11-07T10:00:08.424Z,18.61
2022-11-07T10:03:06.050Z,18.69
2022-11-07T10:06:34.576Z,18.75
2022-11-07T10:10:03.569Z,18.79
2022-11-07T10:13:13.151Z,18.85
2022-11-07T10:23:02.920Z,19.10
2022-11-07T10:26:32.924Z,19.11
2022-11-07T10:33:14.108Z,19.21
2022-11-07T10:36:35.876Z,19.15
2022-11-07T10:39:42.648Z,19.11
2022-11-07T10:43:29.883Z,19.16
2022-11-07T10:46:51.629Z,19.16
2022-11-07T10:50:16.271Z,19.02
2022-11-07T10:52:47.305Z,18.81
2022-11-07T10:55:59.380Z,18.65
2022-11-07T10:59:02.234Z,18.53
2022-11-07T11:08:56.075Z,17.91
2022-11-07T11:29:39.175Z,17.96
2022-11-07T12:26:51.737Z,18.90
2022-11-07T12:30:34.258Z,18.89
2022-11-07T13:02:14.924Z,19.19
2022-11-07T13:04:50.105Z,19.05
2022-11-07T13:11:12.619Z,19.09
2022-11-07T13:14:28.446Z,19.09
2022-11-07T13:17:56.721Z,19.08
2022-11-07T13:21:06.946Z,19.23
2022-11-07T13:23:58.092Z,19.29
2022-11-07T13:30:03.441Z,19.29
2022-11-07T13:32:55.468Z,19.56
2022-11-07T13:35:55.194Z,19.51
2022-11-07T13:38:26.933Z,19.51
2022-11-07T13:41:44.352Z,19.63
2022-11-07T13:44:41.537Z,19.60
2022-11-07T13:47:21.325Z,19.51
2022-11-07T13:50:28.279Z,19.70
2022-11-07T14:00:38.310Z,19.53
2022-11-07T14:03:29.474Z,19.36
2022-11-07T14:06:13.279Z,19.54
2022-11-07T14:09:06.732Z,19.61
2022-11-07T14:12:06.113Z,19.47
2022-11-07T14:22:09.767Z,19.45
2022-11-07T14:25:11.956Z,19.58
2022-11-07T14:34:02.045Z,19.71
2022-11-07T14:36:46.086Z,19.61
2022-11-07T14:39:19.692Z,19.74
2022-11-07T14:42:09.667Z,19.58
2022-11-07T14:48:11.435Z,19.84
2022-11-07T14:51:37.315Z,19.72
2022-11-07T14:54:34.321Z,19.76
2022-11-07T15:00:42.327Z,19.73
2022-11-07T15:03:33.626Z,19.68
2022-11-07T15:06:16.799Z,19.62
2022-11-07T15:09:51.128Z,19.63
2022-11-07T15:12:44.158Z,19.63
2022-11-07T15:15:56.938Z,19.57
2022-11-07T15:21:47.647Z,19.47
2022-11-07T15:28:01.652Z,19.36
2022-11-07T15:33:57.447Z,19.22
2022-11-07T15:36:41.265Z,19.11
2022-11-07T15:42:51.408Z,18.85
2022-11-07T15:46:08.914Z,18.65
2022-11-07T15:49:29.890Z,18.66
2022-11-07T15:55:23.452Z,18.62
2022-11-07T16:01:16.385Z,18.67
2022-11-07T16:03:50.808Z,18.74
2022-11-07T16:06:30.464Z,18.84
2022-11-07T16:09:07.737Z,18.86
2022-11-07T16:12:04.788Z,18.73
2022-11-07T16:14:43.817Z,18.97
2022-11-07T16:17:46.885Z,18.93
2022-11-07T16:20:21.677Z,18.99
2022-11-07T16:23:13.260Z,19.02
2022-11-07T16:26:02.754Z,19.06
2022-11-07T16:28:47.505Z,18.82
2022-11-07T16:31:18.102Z,19.02
2022-11-07T16:33:57.418Z,18.91
2022-11-07T16:36:30.452Z,18.87
2022-11-07T16:39:12.853Z,18.98
2022-11-07T16:42:01.860Z,19.15
2022-11-07T16:45:02.795Z,19.16
2022-11-07T16:47:35.009Z,19.03
2022-11-07T16:50:42.188Z,19.02
2022-11-07T16:53:13.592Z,19.03
2022-11-07T16:56:11.768Z,19.04
2022-11-07T17:02:21.347Z,18.85
2022-11-07T17:05:03.110Z,18.89
2022-11-07T17:07:40.253Z,18.85
2022-11-07T17:13:23.418Z,18.82
2022-11-07T17:16:12.534Z,18.74
2022-11-07T17:18:42.033Z,18.69
2022-11-07T17:24:11.730Z,18.83
2022-11-07T17:27:06.397Z,18.82
2022-11-07T17:29:45.730Z,18.69
2022-11-07T17:32:19.817Z,18.94
2022-11-07T17:35:17.773Z,18.98
2022-11-07T17:38:01.131Z,19.00
2022-11-07T17:40:37.603Z,18.89
2022-11-07T17:43:11.895Z,18.90
2022-11-07T17:45:51.639Z,18.93
2022-11-07T17:48:23.187Z,19.00
2022-11-07T17:50:57.411Z,19.04
2022-11-07T17:53:43.557Z,19.08
2022-11-07T17:56:19.981Z,19.15
2022-11-07T17:58:52.563Z,19.14
2022-11-07T18:01:31.284Z,19.18
2022-11-07T18:04:05.031Z,18.96
2022-11-07T18:06:52.547Z,19.14
2022-11-07T18:09:30.514Z,19.10
2022-11-07T18:12:26.665Z,19.00
2022-11-07T18:15:05.276Z,19.04
2022-11-07T18:17:40.480Z,19.19
2022-11-07T18:20:28.568Z,19.13
2022-11-07T18:23:04.060Z,19.29
2022-11-07T18:25:35.686Z,19.10
2022-11-07T18:28:06.990Z,19.14
2022-11-07T18:30:37.353Z,19.33
2022-11-07T18:33:09.371Z,19.31
2022-11-07T18:35:50.014Z,19.29
2022-11-07T18:38:20.356Z,19.26
2022-11-07T18:41:06.590Z,19.28
2022-11-07T18:43:37.768Z,19.24
2022-11-07T18:46:14.708Z,19.31
2022-11-07T18:48:47.687Z,19.19
2022-11-07T18:51:19.773Z,19.03
2022-11-07T18:53:54.204Z,19.23
2022-11-07T18:56:28.852Z,19.21
2022-11-07T18:58:59.641Z,19.29
2022-11-07T19:01:34.395Z,19.37
2022-11-07T19:04:16.139Z,19.42
2022-11-07T19:07:06.024Z,19.43
2022-11-07T19:09:36.467Z,19.40
2022-11-07T19:12:11.906Z,19.45
2022-11-07T19:15:03.901Z,19.47
2022-11-07T19:17:46.971Z,19.48
2022-11-07T19:20:40.824Z,19.48
2022-11-07T19:23:28.999Z,19.27
2022-11-07T19:26:00.310Z,19.44
2022-11-07T19:28:39.110Z,19.40
2022-11-07T19:33:56.065Z,19.24
2022-11-07T19:36:34.276Z,19.48
2022-11-07T19:39:24.268Z,19.46
2022-11-07T19:41:56.482Z,19.38
2022-11-07T19:44:32.178Z,19.29
2022-11-07T19:47:12.323Z,19.19
2022-11-07T19:49:57.977Z,19.39
2022-11-07T19:52:42.628Z,19.34
2022-11-07T19:55:39.670Z,19.42
2022-11-07T19:58:16.124Z,19.35
2022-11-07T20:00:49.729Z,19.40
2022-11-07T20:03:22.133Z,19.44
2022-11-07T20:06:24.690Z,19.47
2022-11-07T20:09:13.355Z,19.38
2022-11-07T20:12:07.976Z,19.43
2022-11-07T20:14:41.017Z,19.46
2022-11-07T20:17:16.588Z,19.39
2022-11-07T20:20:14.094Z,19.44
2022-11-07T20:22:55.503Z,19.31
2022-11-07T20:25:54.182Z,19.47
2022-11-07T20:28:31.257Z,19.24
2022-11-07T20:31:45.244Z,19.26
2022-11-07T20:34:30.281Z,19.30
2022-11-07T20:37:08.476Z,19.32
2022-11-07T20:39:37.894Z,19.09
2022-11-07T20:42:12.794Z,19.02
2022-11-07T20:44:55.588Z,19.00
2022-11-07T20:47:35.291Z,18.87
2022-11-07T20:50:08.645Z,18.84
2022-11-07T20:52:50.728Z,18.69
2022-11-07T20:55:33.735Z,18.41
2022-11-07T20:58:19.815Z,18.58
2022-11-07T21:00:54.269Z,18.41
2022-11-07T21:03:32.289Z,18.50
2022-11-07T21:06:05.626Z,18.66
2022-11-07T21:08:37.429Z,18.58
2022-11-07T21:11:09.980Z,18.69
2022-11-07T21:13:41.945Z,18.57
2022-11-07T21:16:19.555Z,18.56
2022-11-07T21:18:57.603Z,18.45
2022-11-07T21:21:35.689Z,18.40
2022-11-07T21:24:05.850Z,18.41
2022-11-07T21:26:37.967Z,18.27
2022-11-07T21:29:10.986Z,18.41
2022-11-07T21:31:46.644Z,18.23
2022-11-07T21:34:25.202Z,18.08
2022-11-07T21:36:54.809Z,18.09
2022-11-07T21:39:26.428Z,18.03
2022-11-07T21:41:59.125Z,17.94
2022-11-07T21:44:46.426Z,17.84
2022-11-07T21:50:45.320Z,17.62
2022-11-07T21:58:09.043Z,17.58
2022-11-07T22:05:57.228Z,17.51
2022-11-07T22:08:49.589Z,17.33
2022-11-07T22:12:00.442Z,17.34
2022-11-07T22:14:52.773Z,17.14
2022-11-07T22:17:37.025Z,17.26
2022-11-07T22:20:33.769Z,17.19
2022-11-07T22:23:27.442Z,17.07
2022-11-07T22:33:54.835Z,16.19
2022-11-07T22:36:48.917Z,15.77
2022-11-07T22:39:38.554Z,15.54
2022-11-07T22:45:44.794Z,15.11
2022-11-07T22:48:45.344Z,14.87
2022-11-07T22:51:24.054Z,15.09
2022-11-07T22:57:05.536Z,15.03
2022-11-07T22:59:54.899Z,15.05
2022-11-07T23:02:29.485Z,15.01
2022-11-07T23:05:06.445Z,15.02
2022-11-07T23:07:50.591Z,14.97
2022-11-07T23:10:37.247Z,15.05
2022-11-07T23:13:19.223Z,15.16
2022-11-07T23:16:29.764Z,15.06
2022-11-07T23:21:53.250Z,14.92
2022-11-07T23:27:22.434Z,15.08
2022-11-07T23:29:57.424Z,15.19
2022-11-07T23:32:31.923Z,15.29
2022-11-07T23:35:17.249Z,15.34
2022-11-07T23:38:07.931Z,15.44
2022-11-07T23:40:45.641Z,15.42
2022-11-07T23:43:39.976Z,15.43
2022-11-07T23:46:33.007Z,15.44
2022-11-07T23:49:26.140Z,15.45
2022-11-07T23:52:03.078Z,15.29
2022-11-07T23:55:33.049Z,15.49
